Wetterdaten: Woche 11.10.10 - 17.10.10 (KW41)
Datum Zeit Temperatur Luftfeuchte Luftdruck Niederschlag Windrichtung Sonnenschein Solar Wind
11.10.2010 00:00 7,0 C 83 % 1008,2 hPa 0,0 l/m NO 0,00 h 0 W/m 11,5 km/h (2 Bft)
11.10.2010 01:00 6,3 C 85 % 1008,4 hPa 0,0 l/m NO 0,00 h 0 W/m 11,8 km/h (2 Bft)
11.10.2010 02:00 6,0 C 86 % 1008,4 hPa 0,0 l/m NO 0,00 h 0 W/m 12,1 km/h (2 Bft)
11.10.2010 03:00 5,7 C 87 % 1008,1 hPa 0,0 l/m NO 0,00 h 0 W/m 9,5 km/h (2 Bft)
11.10.2010 04:00 4,9 C 89 % 1007,9 hPa 0,0 l/m N-NO 0,00 h 0 W/m 11,6 km/h (2 Bft)
11.10.2010 05:00 4,0 C 91 % 1007,9 hPa 0,0 l/m N-NO 0,00 h 0 W/m 9,7 km/h (2 Bft)
11.10.2010 06:00 3,6 C 91 % 1008,2 hPa 0,0 l/m NO 0,00 h 0 W/m 9,7 km/h (2 Bft)
11.10.2010 07:00 3,2 C 92 % 1008,3 hPa 0,0 l/m N-NO 0,08 h 12 W/m 6,1 km/h (2 Bft)
11.10.2010 08:00 3,5 C 92 % 1008,5 hPa 0,0 l/m N 0,00 h 47 W/m 7,8 km/h (2 Bft)
11.10.2010 09:00 4,6 C 89 % 1008,8 hPa 0,0 l/m NO 0,08 h 106 W/m 15,0 km/h (3 Bft)
11.10.2010 10:00 6,9 C 83 % 1009,0 hPa 0,0 l/m O 1,00 h 365 W/m 19,7 km/h (3 Bft)
11.10.2010 11:00 9,5 C 73 % 1009,2 hPa 0,0 l/m NO 1,00 h 483 W/m 19,0 km/h (3 Bft)
11.10.2010 12:00 11,8 C 63 % 1009,0 hPa 0,0 l/m O-NO 1,00 h 543 W/m 20,0 km/h (4 Bft)
11.10.2010 13:00 13,5 C 56 % 1008,9 hPa 0,0 l/m O 0,83 h 456 W/m 19,6 km/h (3 Bft)
11.10.2010 14:00 14,7 C 50 % 1008,6 hPa 0,0 l/m O-NO 1,00 h 499 W/m 23,1 km/h (4 Bft)
11.10.2010 15:00 15,3 C 47 % 1008,4 hPa 0,0 l/m SO 0,92 h 373 W/m 21,7 km/h (4 Bft)
11.10.2010 16:00 15,0 C 46 % 1008,6 hPa 0,0 l/m O-NO 0,00 h 66 W/m 22,6 km/h (4 Bft)
11.10.2010 17:00 14,4 C 50 % 1008,9 hPa 0,0 l/m O 0,00 h 34 W/m 17,2 km/h (3 Bft)
11.10.2010 18:00 12,9 C 54 % 1009,4 hPa 0,0 l/m O-NO 0,00 h 12 W/m 10,5 km/h (2 Bft)
11.10.2010 19:00 9,7 C 70 % 1009,9 hPa 0,0 l/m N 0,00 h 0 W/m 4,1 km/h (1 Bft)
11.10.2010 20:00 7,8 C 80 % 1010,2 hPa 0,0 l/m N 0,00 h 0 W/m 1,9 km/h (1 Bft)
11.10.2010 21:00 7,4 C 82 % 1010,4 hPa 0,0 l/m N-NO 0,00 h 0 W/m 3,9 km/h (1 Bft)
11.10.2010 22:00 7,8 C 81 % 1010,9 hPa 0,0 l/m NO 0,00 h 0 W/m 8,6 km/h (2 Bft)
11.10.2010 23:00 7,2 C 84 % 1011,5 hPa 0,0 l/m N-NO 0,00 h 0 W/m 5,9 km/h (2 Bft)
12.10.2010 00:00 6,3 C 86 % 1011,7 hPa 0,0 l/m N-NO 0,00 h 0 W/m 6,5 km/h (2 Bft)
12.10.2010 01:00 5,8 C 88 % 1011,7 hPa 0,0 l/m N-NO 0,00 h 0 W/m 6,0 km/h (2 Bft)
12.10.2010 02:00 5,2 C 90 % 1012,0 hPa 0,0 l/m N-NW 0,00 h 0 W/m 5,3 km/h (1 Bft)
12.10.2010 03:00 4,5 C 91 % 1012,2 hPa 0,0 l/m NW 0,00 h 0 W/m 6,0 km/h (2 Bft)
12.10.2010 04:00 3,9 C 93 % 1012,2 hPa 0,0 l/m N-NW 0,00 h 0 W/m 4,4 km/h (1 Bft)
12.10.2010 05:00 3,6 C 94 % 1012,2 hPa 0,0 l/m N 0,00 h 0 W/m 5,6 km/h (1 Bft)
12.10.2010 06:00 3,3 C 94 % 1012,7 hPa 0,0 l/m N-NO 0,00 h 0 W/m 5,2 km/h (1 Bft)
12.10.2010 07:00 3,0 C 94 % 1013,1 hPa 0,0 l/m N-NO 0,00 h 10 W/m 5,5 km/h (1 Bft)
12.10.2010 08:00 3,6 C 94 % 1013,3 hPa 0,0 l/m N-NO 0,00 h 37 W/m 6,1 km/h (2 Bft)
12.10.2010 09:00 5,2 C 88 % 1013,5 hPa 0,0 l/m O-NO 0,25 h 133 W/m 8,4 km/h (2 Bft)
12.10.2010 10:00 7,2 C 83 % 1013,3 hPa 0,0 l/m O-NO 1,00 h 329 W/m 9,7 km/h (2 Bft)
12.10.2010 11:00 9,3 C 79 % 1013,1 hPa 0,0 l/m O-NO 1,00 h 442 W/m 11,0 km/h (2 Bft)
12.10.2010 12:00 11,5 C 73 % 1012,7 hPa 0,0 l/m O-NO 1,00 h 514 W/m 14,2 km/h (3 Bft)
12.10.2010 13:00 13,0 C 65 % 1012,0 hPa 0,0 l/m NO 0,83 h 451 W/m 16,5 km/h (3 Bft)
12.10.2010 14:00 14,0 C 60 % 1011,3 hPa 0,0 l/m O-NO 1,00 h 478 W/m 16,8 km/h (3 Bft)
12.10.2010 15:00 14,6 C 58 % 1010,8 hPa 0,0 l/m O-NO 1,00 h 365 W/m 16,4 km/h (3 Bft)
12.10.2010 16:00 14,5 C 56 % 1010,6 hPa 0,0 l/m NO 0,00 h 82 W/m 16,4 km/h (3 Bft)
12.10.2010 17:00 13,6 C 60 % 1010,7 hPa 0,0 l/m NO 0,00 h 38 W/m 14,6 km/h (3 Bft)
12.10.2010 18:00 11,8 C 64 % 1010,9 hPa 0,0 l/m NO 0,00 h 13 W/m 11,5 km/h (2 Bft)
12.10.2010 19:00 9,3 C 75 % 1011,1 hPa 0,0 l/m O-NO 0,00 h 0 W/m 4,8 km/h (1 Bft)
12.10.2010 20:00 7,5 C 84 % 1011,4 hPa 0,0 l/m N-NO 0,00 h 0 W/m 4,3 km/h (1 Bft)
12.10.2010 21:00 6,8 C 86 % 1011,7 hPa 0,0 l/m N-NW 0,00 h 0 W/m 5,2 km/h (1 Bft)
12.10.2010 22:00 6,3 C 88 % 1011,7 hPa 0,0 l/m N 0,00 h 0 W/m 4,5 km/h (1 Bft)
12.10.2010 23:00 5,7 C 90 % 1011,3 hPa 0,0 l/m N-NW 0,00 h 0 W/m 3,9 km/h (1 Bft)
13.10.2010 00:00 5,3 C 91 % 1011,1 hPa 0,0 l/m N-NW 0,00 h 0 W/m 5,6 km/h (1 Bft)
13.10.2010 01:00 4,8 C 93 % 1011,0 hPa 0,0 l/m N-NW 0,00 h 0 W/m 4,0 km/h (1 Bft)
13.10.2010 02:00 4,5 C 94 % 1011,1 hPa 0,0 l/m N-NW 0,00 h 0 W/m 5,3 km/h (1 Bft)
13.10.2010 03:00 4,4 C 95 % 1010,9 hPa 0,0 l/m N-NO 0,00 h 0 W/m 4,8 km/h (1 Bft)
13.10.2010 04:00 3,8 C 96 % 1010,8 hPa 0,0 l/m N 0,00 h 0 W/m 5,1 km/h (1 Bft)
13.10.2010 05:00 3,8 C 96 % 1010,8 hPa 0,0 l/m N 0,00 h 0 W/m 6,5 km/h (2 Bft)
13.10.2010 06:00 3,3 C 97 % 1011,0 hPa 0,0 l/m N 0,00 h 0 W/m 5,6 km/h (1 Bft)
13.10.2010 07:00 3,9 C 97 % 1011,3 hPa 0,0 l/m N-NO 0,00 h 5 W/m 7,1 km/h (2 Bft)
13.10.2010 08:00 4,6 C 97 % 1011,6 hPa 0,0 l/m N-NO 0,00 h 20 W/m 8,3 km/h (2 Bft)
13.10.2010 09:00 5,3 C 98 % 1011,9 hPa 0,0 l/m O-NO 0,00 h 43 W/m 7,6 km/h (2 Bft)
13.10.2010 10:00 5,8 C 96 % 1012,1 hPa 0,0 l/m NO 0,00 h 65 W/m 10,4 km/h (2 Bft)
13.10.2010 11:00 6,5 C 95 % 1012,3 hPa 0,2 l/m O-NO 0,00 h 108 W/m 12,4 km/h (3 Bft)
13.10.2010 12:00 7,8 C 90 % 1012,2 hPa 0,0 l/m O 0,00 h 173 W/m 16,2 km/h (3 Bft)
13.10.2010 13:00 8,4 C 86 % 1012,0 hPa 0,0 l/m O-NO 0,00 h 144 W/m 14,0 km/h (3 Bft)
13.10.2010 14:00 8,9 C 85 % 1011,5 hPa 0,0 l/m O-NO 0,00 h 152 W/m 16,2 km/h (3 Bft)
13.10.2010 15:00 8,9 C 84 % 1011,3 hPa 0,0 l/m O 0,00 h 113 W/m 14,9 km/h (3 Bft)
13.10.2010 16:00 8,8 C 84 % 1011,3 hPa 0,0 l/m O-NO 0,00 h 65 W/m 13,4 km/h (3 Bft)
13.10.2010 17:00 8,6 C 84 % 1011,8 hPa 0,0 l/m O-SO 0,00 h 28 W/m 12,0 km/h (2 Bft)
13.10.2010 18:00 8,0 C 85 % 1012,4 hPa 0,0 l/m O-SO 0,00 h 12 W/m 9,5 km/h (2 Bft)
13.10.2010 19:00 6,5 C 90 % 1012,8 hPa 0,0 l/m N 0,00 h 0 W/m 2,3 km/h (1 Bft)
13.10.2010 20:00 5,0 C 94 % 1013,1 hPa 0,0 l/m N 0,00 h 0 W/m 1,5 km/h (1 Bft)
13.10.2010 21:00 4,3 C 96 % 1013,2 hPa 0,0 l/m N 0,00 h 0 W/m 1,6 km/h (1 Bft)
13.10.2010 22:00 4,1 C 97 % 1013,3 hPa 0,0 l/m N-NW 0,00 h 0 W/m 5,6 km/h (1 Bft)
13.10.2010 23:00 4,5 C 97 % 1013,1 hPa 0,0 l/m N-NW 0,00 h 0 W/m 5,2 km/h (1 Bft)
14.10.2010 00:00 5,0 C 97 % 1012,8 hPa 0,0 l/m N-NW 0,00 h 0 W/m 4,1 km/h (1 Bft)
14.10.2010 01:00 5,3 C 96 % 1012,8 hPa 0,0 l/m N 0,00 h 0 W/m 1,5 km/h (1 Bft)
14.10.2010 02:00 5,6 C 96 % 1012,7 hPa 0,0 l/m N 0,00 h 0 W/m 0,0 km/h (0 Bft)
14.10.2010 03:00 5,7 C 95 % 1012,5 hPa 0,0 l/m N 0,00 h 0 W/m 1,3 km/h (1 Bft)
14.10.2010 04:00 5,9 C 96 % 1012,4 hPa 0,0 l/m N 0,00 h 0 W/m 0,7 km/h (0 Bft)
14.10.2010 05:00 6,1 C 96 % 1012,5 hPa 0,0 l/m N 0,00 h 0 W/m 0,1 km/h (0 Bft)
14.10.2010 06:00 6,1 C 96 % 1012,6 hPa 0,0 l/m N 0,00 h 0 W/m 0,1 km/h (0 Bft)
14.10.2010 07:00 6,1 C 96 % 1012,8 hPa 0,0 l/m N 0,00 h 6 W/m 0,4 km/h (0 Bft)
14.10.2010 08:00 6,3 C 96 % 1013,2 hPa 0,0 l/m N 0,00 h 29 W/m 1,3 km/h (1 Bft)
14.10.2010 09:00 6,9 C 94 % 1013,4 hPa 0,0 l/m N 0,00 h 89 W/m 1,1 km/h (0 Bft)
14.10.2010 10:00 8,3 C 82 % 1013,4 hPa 0,0 l/m O-NO 0,50 h 269 W/m 8,6 km/h (2 Bft)
14.10.2010 11:00 8,9 C 75 % 1013,6 hPa 0,0 l/m O-NO 0,00 h 184 W/m 11,7 km/h (2 Bft)
14.10.2010 12:00 9,1 C 74 % 1013,9 hPa 0,0 l/m O-NO 0,00 h 169 W/m 12,8 km/h (3 Bft)
14.10.2010 13:00 9,4 C 72 % 1013,8 hPa 0,0 l/m O-SO 0,17 h 242 W/m 10,5 km/h (2 Bft)
14.10.2010 14:00 10,2 C 69 % 1013,4 hPa 0,0 l/m O-SO 0,92 h 431 W/m 11,5 km/h (2 Bft)
14.10.2010 15:00 10,6 C 68 % 1013,1 hPa 0,0 l/m SO 0,92 h 364 W/m 8,7 km/h (2 Bft)
14.10.2010 16:00 10,5 C 69 % 1013,1 hPa 0,0 l/m O-SO 0,25 h 158 W/m 6,6 km/h (2 Bft)
14.10.2010 17:00 10,3 C 71 % 1013,2 hPa 0,0 l/m O-SO 0,00 h 63 W/m 4,0 km/h (1 Bft)
14.10.2010 18:00 9,0 C 79 % 1013,3 hPa 0,0 l/m N 0,17 h 17 W/m 0,9 km/h (0 Bft)
14.10.2010 19:00 7,3 C 89 % 1013,7 hPa 0,0 l/m N 0,00 h 0 W/m 0,0 km/h (0 Bft)
14.10.2010 20:00 7,0 C 91 % 1014,1 hPa 0,0 l/m N 0,00 h 0 W/m 0,0 km/h (0 Bft)
14.10.2010 21:00 6,9 C 92 % 1014,2 hPa 0,0 l/m N 0,00 h 0 W/m 0,1 km/h (0 Bft)
14.10.2010 22:00 5,7 C 93 % 1014,2 hPa 0,0 l/m N 0,00 h 0 W/m 1,2 km/h (1 Bft)
14.10.2010 23:00 4,5 C 96 % 1014,0 hPa 0,0 l/m N 0,00 h 0 W/m 0,8 km/h (0 Bft)
15.10.2010 00:00 5,2 C 96 % 1013,8 hPa 0,0 l/m N 0,00 h 0 W/m 1,1 km/h (0 Bft)
15.10.2010 01:00 5,3 C 96 % 1013,6 hPa 0,0 l/m N 0,00 h 0 W/m 4,3 km/h (1 Bft)
15.10.2010 02:00 5,3 C 97 % 1013,6 hPa 0,0 l/m N 0,00 h 0 W/m 5,7 km/h (1 Bft)
15.10.2010 03:00 4,9 C 97 % 1013,5 hPa 0,0 l/m N-NO 0,00 h 0 W/m 5,7 km/h (1 Bft)
15.10.2010 04:00 4,9 C 98 % 1013,1 hPa 0,0 l/m N-NO 0,00 h 0 W/m 6,3 km/h (2 Bft)
15.10.2010 05:00 4,7 C 97 % 1013,0 hPa 0,0 l/m N-NO 0,00 h 0 W/m 6,4 km/h (2 Bft)
15.10.2010 06:00 4,7 C 97 % 1013,0 hPa 0,0 l/m NO 0,00 h 0 W/m 6,5 km/h (2 Bft)
15.10.2010 07:00 4,9 C 97 % 1013,0 hPa 0,0 l/m NO 0,00 h 0 W/m 4,5 km/h (1 Bft)
15.10.2010 08:00 5,2 C 95 % 1013,2 hPa 0,0 l/m O-NO 0,00 h 13 W/m 6,5 km/h (2 Bft)
15.10.2010 09:00 5,3 C 94 % 1013,5 hPa 0,0 l/m NO 0,00 h 38 W/m 5,6 km/h (1 Bft)
15.10.2010 10:00 5,8 C 93 % 1013,5 hPa 0,0 l/m NO 0,00 h 68 W/m 3,6 km/h (1 Bft)
15.10.2010 11:00 6,6 C 88 % 1013,4 hPa 0,0 l/m O-NO 0,00 h 187 W/m 8,6 km/h (2 Bft)
15.10.2010 12:00 7,3 C 84 % 1013,2 hPa 0,0 l/m O-NO 0,00 h 144 W/m 8,4 km/h (2 Bft)
15.10.2010 13:00 7,3 C 83 % 1012,8 hPa 0,0 l/m O-NO 0,00 h 86 W/m 9,1 km/h (2 Bft)
15.10.2010 14:00 7,5 C 80 % 1012,4 hPa 0,0 l/m O-NO 0,00 h 78 W/m 6,8 km/h (2 Bft)
15.10.2010 15:00 7,5 C 80 % 1012,2 hPa 0,0 l/m NO 0,00 h 60 W/m 5,7 km/h (1 Bft)
15.10.2010 16:00 8,5 C 73 % 1012,0 hPa 0,0 l/m N-NO 0,00 h 41 W/m 5,3 km/h (1 Bft)
15.10.2010 17:00 7,8 C 79 % 1011,9 hPa 0,0 l/m N-NO 0,00 h 12 W/m 2,3 km/h (1 Bft)
15.10.2010 18:00 7,2 C 83 % 1011,9 hPa 0,0 l/m N 0,00 h 6 W/m 0,5 km/h (0 Bft)
15.10.2010 19:00 6,8 C 86 % 1012,1 hPa 0,0 l/m N 0,00 h 0 W/m 0,5 km/h (0 Bft)
15.10.2010 20:00 6,5 C 87 % 1011,8 hPa 0,0 l/m SW 0,00 h 0 W/m 2,0 km/h (1 Bft)
15.10.2010 21:00 6,4 C 86 % 1011,6 hPa 0,0 l/m N 0,00 h 0 W/m 0,1 km/h (0 Bft)
15.10.2010 22:00 6,1 C 87 % 1011,5 hPa 0,0 l/m N 0,00 h 0 W/m 0,0 km/h (0 Bft)
15.10.2010 23:00 6,0 C 90 % 1011,2 hPa 0,0 l/m N 0,00 h 0 W/m 0,5 km/h (0 Bft)
16.10.2010 00:00 5,8 C 90 % 1010,7 hPa 0,0 l/m N 0,00 h 0 W/m 0,3 km/h (0 Bft)
16.10.2010 01:00 5,5 C 93 % 1010,2 hPa 0,0 l/m N 0,00 h 0 W/m 0,1 km/h (0 Bft)
16.10.2010 02:00 5,5 C 93 % 1009,9 hPa 0,0 l/m N 0,00 h 0 W/m 0,3 km/h (0 Bft)
16.10.2010 03:00 5,5 C 92 % 1009,2 hPa 0,0 l/m N 0,00 h 0 W/m 1,6 km/h (1 Bft)
16.10.2010 04:00 5,5 C 92 % 1008,9 hPa 0,0 l/m N 0,00 h 0 W/m 0,5 km/h (0 Bft)
16.10.2010 05:00 5,3 C 93 % 1008,9 hPa 0,4 l/m W-NW 0,00 h 0 W/m 4,8 km/h (1 Bft)
16.10.2010 06:00 5,0 C 96 % 1008,9 hPa 0,6 l/m N 0,00 h 0 W/m 1,7 km/h (1 Bft)
16.10.2010 07:00 4,7 C 97 % 1008,7 hPa 0,8 l/m N 0,00 h 0 W/m 2,3 km/h (1 Bft)
16.10.2010 08:00 4,8 C 98 % 1008,8 hPa 0,8 l/m N 0,00 h 16 W/m 2,1 km/h (1 Bft)
16.10.2010 09:00 5,4 C 98 % 1008,9 hPa 0,2 l/m N 0,00 h 51 W/m 2,4 km/h (1 Bft)
16.10.2010 10:00 5,9 C 98 % 1009,0 hPa 0,6 l/m SW 0,00 h 91 W/m 3,5 km/h (1 Bft)
16.10.2010 11:00 6,6 C 98 % 1009,1 hPa 0,2 l/m W-SW 0,00 h 151 W/m 6,4 km/h (2 Bft)
16.10.2010 12:00 7,5 C 98 % 1008,9 hPa 0,0 l/m SW 0,00 h 189 W/m 8,6 km/h (2 Bft)
16.10.2010 13:00 7,2 C 97 % 1008,7 hPa 0,0 l/m W-SW 0,00 h 98 W/m 9,7 km/h (2 Bft)
16.10.2010 14:00 7,0 C 97 % 1008,5 hPa 0,4 l/m SW 0,00 h 106 W/m 10,5 km/h (2 Bft)
16.10.2010 15:00 6,9 C 97 % 1008,5 hPa 0,4 l/m SW 0,00 h 74 W/m 10,2 km/h (2 Bft)
16.10.2010 16:00 6,9 C 98 % 1008,7 hPa 0,2 l/m W-SW 0,00 h 76 W/m 7,5 km/h (2 Bft)
16.10.2010 17:00 6,5 C 97 % 1009,0 hPa 0,4 l/m W 0,00 h 29 W/m 5,2 km/h (1 Bft)
16.10.2010 18:00 5,8 C 98 % 1009,4 hPa 0,6 l/m W-NW 0,00 h 5 W/m 4,4 km/h (1 Bft)
16.10.2010 19:00 5,3 C 98 % 1010,0 hPa 0,4 l/m N 0,00 h 0 W/m 0,8 km/h (0 Bft)
16.10.2010 20:00 5,2 C 98 % 1010,4 hPa 0,0 l/m N 0,00 h 0 W/m 0,9 km/h (0 Bft)
16.10.2010 21:00 5,3 C 98 % 1010,8 hPa 0,2 l/m N 0,00 h 0 W/m 0,8 km/h (0 Bft)
16.10.2010 22:00 5,5 C 98 % 1011,0 hPa 0,0 l/m N 0,00 h 0 W/m 0,0 km/h (0 Bft)
16.10.2010 23:00 5,6 C 99 % 1011,3 hPa 0,0 l/m N 0,00 h 0 W/m 0,8 km/h (0 Bft)
17.10.2010 00:00 5,6 C 99 % 1011,6 hPa 0,0 l/m N 0,00 h 0 W/m 0,4 km/h (0 Bft)
17.10.2010 01:00 5,5 C 99 % 1011,8 hPa 0,0 l/m N 0,00 h 0 W/m 0,0 km/h (0 Bft)
17.10.2010 02:00 5,7 C 99 % 1011,8 hPa 0,0 l/m N 0,00 h 0 W/m 0,0 km/h (0 Bft)
17.10.2010 03:00 5,7 C 99 % 1011,7 hPa 0,2 l/m N 0,00 h 0 W/m 0,0 km/h (0 Bft)
17.10.2010 04:00 5,7 C 99 % 1011,7 hPa 0,0 l/m O 0,00 h 0 W/m 3,2 km/h (1 Bft)
17.10.2010 05:00 5,6 C 99 % 1011,9 hPa 0,0 l/m NO 0,00 h 0 W/m 7,5 km/h (2 Bft)
17.10.2010 06:00 5,6 C 99 % 1012,3 hPa 0,0 l/m O-NO 0,00 h 0 W/m 8,6 km/h (2 Bft)
17.10.2010 07:00 5,4 C 98 % 1012,6 hPa 0,0 l/m O-NO 0,00 h 0 W/m 13,2 km/h (3 Bft)
17.10.2010 08:00 5,4 C 98 % 1012,9 hPa 0,0 l/m O-NO 0,00 h 14 W/m 14,6 km/h (3 Bft)
17.10.2010 09:00 5,5 C 98 % 1013,2 hPa 0,0 l/m O-NO 0,00 h 22 W/m 16,2 km/h (3 Bft)
17.10.2010 10:00 5,7 C 97 % 1013,6 hPa 0,0 l/m NO 0,00 h 54 W/m 16,1 km/h (3 Bft)
17.10.2010 11:00 6,3 C 96 % 1014,0 hPa 0,0 l/m O-NO 0,00 h 135 W/m 20,2 km/h (4 Bft)
17.10.2010 12:00 7,1 C 89 % 1014,1 hPa 0,0 l/m O-NO 0,00 h 125 W/m 18,5 km/h (3 Bft)
17.10.2010 13:00 8,1 C 85 % 1014,1 hPa 0,0 l/m NO 0,00 h 176 W/m 17,3 km/h (3 Bft)
17.10.2010 14:00 7,9 C 85 % 1013,9 hPa 0,0 l/m O-NO 0,00 h 111 W/m 16,1 km/h (3 Bft)
17.10.2010 15:00 7,5 C 90 % 1014,0 hPa 0,0 l/m NO 0,00 h 70 W/m 14,2 km/h (3 Bft)
17.10.2010 16:00 7,1 C 94 % 1014,2 hPa 0,2 l/m NO 0,00 h 57 W/m 15,7 km/h (3 Bft)
17.10.2010 17:00 6,5 C 96 % 1014,7 hPa 0,0 l/m O-NO 0,08 h 33 W/m 15,6 km/h (3 Bft)
17.10.2010 18:00 6,2 C 96 % 1015,2 hPa 0,2 l/m NO 0,08 h 18 W/m 12,8 km/h (3 Bft)
17.10.2010 19:00 6,0 C 97 % 1015,7 hPa 0,2 l/m N-NO 0,00 h 0 W/m 13,3 km/h (3 Bft)
17.10.2010 20:00 5,9 C 97 % 1016,1 hPa 0,2 l/m NO 0,00 h 0 W/m 13,2 km/h (3 Bft)
17.10.2010 21:00 5,7 C 97 % 1016,4 hPa 0,2 l/m O-NO 0,00 h 0 W/m 11,9 km/h (2 Bft)
17.10.2010 22:00 5,3 C 97 % 1016,6 hPa 0,6 l/m O-NO 0,00 h 0 W/m 12,0 km/h (2 Bft)
17.10.2010 23:00 5,1 C 98 % 1016,8 hPa 0,0 l/m NO 0,00 h 0 W/m 10,6 km/h (2 Bft)
Min-Datum _ 11.10.10 11.10.10 11.10.10 - - - - 11.10.10
_ Min-Zeit 07:45 15:10 04:50 - - - - 19:55
Minimum _ 2,9 C 44 % 1007,8 hPa - - - - 0,0 km/h (0 Bft)
Max-Datum _ 11.10.10 14.10.10 17.10.10 16.10.10 - 11.10.10 14.10.10 11.10.10
_ Max-Zeit 15:05 04:05 22:50 07:10 - 07:45 14:05 15:15
Maximum _ 15,6 C 100 % 1016,9 hPa 0,8 l/m - 0,08 h 622 W/m 37,0 km/h
O (5 Bft)
Durchschnitt _ 6,8 C 88 % 1011,7 hPa #8,2 l/m O-NO #15:05 h 139 W/m 7,5 km/h (2 Bft)